Terminal Aerodrome Forecast
Issued by NWS Sterling, VA

Current Version | Previous Version | Graphics & Text | Print | Product List | Glossary On
Versions: 1 2 3 4 5 6 7 8 9 10 11 12 13 14 15 16 17 18
556
FTUS41 KLWX 052321
TAFMRB
TAF
KMRB 052321Z 0600/0624 02005KT P6SM BKN250
     FM061300 09004KT P6SM OVC060
     FM061400 10004KT P6SM OVC030
     FM061500 10005KT P6SM -RA OVC015
     FM061700 11006KT 1 1/2SM -RA OVC003
     FM062300 05005KT 3/4SM -RA OVC003=

USA.gov is the U.S. government's official web portal to all federal, state and local government web resources and services.